Terminal Aerodrome Forecast
Issued by NWS Greer, SC

Current Version | Previous Version | Text Only | Print | Product List | Glossary On
Versions: 1 2 3 4 5 6 7 8 9 10 11 12 13 14 15 16 17 18 19 20 21 22 23 24 25 26 27 28 29 30 31 32 33 34 35 36 37 38 39 40 41 42 43 44 45 46
000
FTUS42 KGSP 231733
TAFAVL
TAF
KAVL 231733Z 2318/2418 20013G23KT P6SM SCT040
     FM232200 20013G22KT P6SM VCSH BKN040
     FM240100 19011G18KT P6SM VCTS BKN050CB
      TEMPO 2402/2406 3SM TSRA OVC025CB
     FM240700 22008KT P6SM VCSH OVC015
     FM241000 30006KT P6SM BKN025 PROB30 2412/2418 -SHRA OVC015=

USA.gov is the U.S. government's official web portal to all federal, state and local government web resources and services.